KBAD/BAD METAR and TAF weather

Enter ICAO airport designator
Station Type Date Time Source
KBAD METAR 2018/01/22 10:56 UTC NOAA

KBAD 221056Z AUTO 24005KT 10SM OVC065 14/07 A2985 RMK AO2 SLP110 T01400071 $


Station Type Date Time Source
KBAD Decoded METAR 2018/01/22 10:56 UTC NOAA

Barksdale Air Force Base, LA, United States (KBAD) 32-30N 093-40W
Jan 22, 2018 - 05:56 AM EST / 2018.01.22 1056 UTC
Wind: from the WSW (240 degrees) at 6 MPH (5 KT):0
Visibility: 10 mile(s):0
Sky conditions: overcast
Temperature: 57.2 F (14.0 C)
Dew Point: 44.8 F (7.1 C)
Relative Humidity: 63%
Pressure (altimeter): 29.85 in. Hg (1010 hPa)
ob: KBAD 221056Z AUTO 24005KT 10SM OVC065 14/07 A2985 RMK AO2 SLP110 T01400071
cycle: 11

Station Type Date Time Source
KBAD TAF 2018/01/22 10:03 UTC NOAA

TAF TAF KBAD 221000Z 2210/2316 27009KT 9999 SCT020 BKN055 WS020/20035KT QNH2980INS
BECMG 2214/2215 28012G20KT 9999 SKC 510306 QNH2992INS
BECMG 2223/2224 26009KT 9999 SKC 510306 QNH2997INS
BECMG 2305/2306 31006KT 9999 SKC QNH3005INS
BECMG 2314/2315 30012KT 9999 SKC QNH3015INS TX15/2210Z TN02/2309Z


Example: see airport list